Hauptseite
METAR-TAF:

METAR-TAF

Flughäfen :

Flughafen Marka International

Amman, Jordanien

Breite: 31-59N, Länge: 035-59E, Höhe: 767 m

Beobachtung

Neuester Wetterbericht von vor 45 Minuten, um 05:00 UTC
Windstille
Temperatur 18°C
Luftfeuchtigkeit 83%
Luftdruck 1015 hPa
Sichtweite: 1500 m
verbreitet Staub

METAR: OJAM 180500Z 00000KT 1500 DU NSC 18/15 Q1015 NOSIG

Zeit: 08:45 (05:45 UTC)

Prognose

Neuester Wetterbericht von vor 55 Minuten, um 04:50 UTC
Gültige Prognose vom 18 um 06 UTC bis 19 um 12 UTC
Wind 2 kt aus unterschiedlichen Richtungen
Sichtweite: 4000 m
trockener Dunst
Übergehend zu
vom 18 um 10 UTC bis 18 um 12 UTC
Wind 10 kt aus West/Nordwest
Sichtweite: 5000 m
Leicht bewölkt in der Höhe von 3500 ft

TAF: OJAM 180450Z 1806/1912 VRB02KT 4000 HZ NSC BECMG 1810/1812 29010KT 5000 FEW035

Wetterbeobachtungen und Prognosen von mehr als 4000 Flughäfen (METAR und TAF Bericht).

Die verfügbaren Stationen werden durch gelbe und rote Markierungen auf der Karte dargestellt.

Führen Sie die Maus auf sie, um den Namen der Station zu sehen.

Darauf klicken, um die Beobachtung von Wetterbeobachtungen und Prognosen zu sehen.

Um die Karte zu ändern : klicken Sie auf den grünen Tasten mit einem schwarzen Kreuz Zum Vergrößern, auf den grünen Button mit einem Gedankenstrich zu verkleinern, oder auf die grünen Pfeile für benachbarte Karten.


METAR-TAF: